Time;durP1;ratioP1;P1;durP2;ratioP2;P2;SDS_P1;SDS_P2;PMS_P1;PMS_P2;Temp;Humidity;BMP_temperature;BMP_pressure;BME280_temperature;BME280_humidity;BME280_pressure;Samples;Min_cycle;Max_cycle;Signal;HPM_P1;HPM_P2
2021/12/27 00:02:05;;;;;;;28.98;8.15;;;;;;;;;;5057645;28;20020;-76
2021/12/27 00:04:31;;;;;;;20.38;8.20;;;;;;;;;;5060299;28;20423;-79
2021/12/27 00:06:57;;;;;;;21.58;8.40;;;;;;;;;;5056985;28;20063;-79
2021/12/27 00:09:23;;;;;;;50.55;8.63;;;;;;;;;;5052367;28;20488;-79
2021/12/27 00:11:49;;;;;;;35.70;8.43;;;;;;;;;;5059097;28;20025;-75
2021/12/27 00:14:15;;;;;;;32.28;9.55;;;;;;;;;;5053649;28;20029;-79
2021/12/27 00:16:42;;;;;;;14.75;7.43;;;;;;;;;;5070654;28;20024;-75
2021/12/27 00:19:09;;;;;;;17.73;7.78;;;;;;;;;;5071321;28;20024;-75
2021/12/27 00:21:35;;;;;;;15.15;6.95;;;;;;;;;;5062511;28;20100;-75
2021/12/27 00:24:01;;;;;;;16.25;7.45;;;;;;;;;;5059368;28;20020;-78
2021/12/27 00:26:27;;;;;;;19.40;8.23;;;;;;;;;;5054070;28;20029;-75
2021/12/27 00:28:53;;;;;;;25.77;8.40;;;;;;;;;;5051737;28;20031;-78
2021/12/27 00:31:19;;;;;;;18.15;7.43;;;;;;;;;;5053761;28;20029;-76
2021/12/27 00:33:46;;;;;;;17.95;7.63;;;;;;;;;;5051200;28;20029;-78
2021/12/27 00:36:12;;;;;;;21.83;8.43;;;;;;;;;;5050173;28;20056;-75
2021/12/27 00:38:38;;;;;;;19.40;8.23;;;;;;;;;;5050090;28;20047;-76
2021/12/27 00:41:04;;;;;;;25.42;9.10;;;;;;;;;;5050778;28;20032;-75
2021/12/27 00:43:30;;;;;;;28.63;9.65;;;;;;;;;;5051360;28;20060;-75
2021/12/27 00:45:56;;;;;;;23.23;9.18;;;;;;;;;;5052541;28;20036;-75
2021/12/27 00:48:22;;;;;;;30.63;9.63;;;;;;;;;;5051020;28;20523;-75
2021/12/27 00:50:49;;;;;;;27.65;8.95;;;;;;;;;;5051577;28;20035;-76
2021/12/27 00:53:15;;;;;;;48.50;10.13;;;;;;;;;;5052369;28;20025;-76
2021/12/27 00:55:41;;;;;;;41.60;9.02;;;;;;;;;;5051168;28;20070;-79
2021/12/27 00:58:07;;;;;;;28.15;8.48;;;;;;;;;;5051586;28;20484;-75
2021/12/27 01:00:33;;;;;;;26.25;7.80;;;;;;;;;;5050864;28;20028;-75
2021/12/27 01:02:59;;;;;;;25.00;8.18;;;;;;;;;;5051264;28;20017;-79
2021/12/27 01:05:25;;;;;;;32.78;8.75;;;;;;;;;;5049215;28;20108;-79
2021/12/27 01:07:51;;;;;;;28.85;9.02;;;;;;;;;;5049699;28;20063;-79
2021/12/27 01:10:50;;;;;;;23.95;7.88;;;;;;;;;;5050994;28;20020;-75
2021/12/27 01:13:23;;;;;;;24.58;7.30;;;;;;;;;;5054211;28;20037;-79
2021/12/27 01:16:02;;;;;;;23.63;8.70;;;;;;;;;;5055464;28;20055;-75
2021/12/27 16:59:45;;;;;;;72.90;34.38;;;;;;;;;;5061203;28;20410;-65
2021/12/27 17:02:11;;;;;;;48.58;25.73;;;;;;;;;;5045369;28;20033;-64
2021/12/27 17:04:37;;;;;;;53.53;29.67;;;;;;;;;;5050824;28;20112;-65
2021/12/27 17:07:03;;;;;;;50.75;24.50;;;;;;;;;;5049417;28;20043;-64
2021/12/27 17:09:29;;;;;;;49.03;25.48;;;;;;;;;;5053649;28;20064;-64
2021/12/27 17:11:55;;;;;;;49.83;24.48;;;;;;;;;;5053506;28;20075;-64
2021/12/27 17:14:22;;;;;;;47.53;24.65;;;;;;;;;;5058179;28;20026;-63
2021/12/27 17:16:48;;;;;;;37.80;20.58;;;;;;;;;;5045907;28;20029;-64
2021/12/27 17:19:17;;;;;;;35.80;18.73;;;;;;;;;;5045823;28;20029;-64
2021/12/27 17:21:43;;;;;;;33.88;19.13;;;;;;;;;;5045890;28;20013;-64
2021/12/27 17:24:11;;;;;;;38.58;18.20;;;;;;;;;;5046309;28;20048;-64
2021/12/27 17:26:37;;;;;;;29.30;17.02;;;;;;;;;;5045948;28;20044;-64
2021/12/27 17:29:05;;;;;;;32.10;16.70;;;;;;;;;;5046076;28;20033;-64
2021/12/27 17:31:32;;;;;;;28.73;14.07;;;;;;;;;;5046301;28;20041;-64
2021/12/27 17:33:59;;;;;;;19.13;12.35;;;;;;;;;;5049181;28;20025;-64
2021/12/27 17:36:25;;;;;;;17.90;12.30;;;;;;;;;;5046740;28;20025;-64
2021/12/27 17:38:51;;;;;;;19.70;13.85;;;;;;;;;;5043046;28;20460;-64
2021/12/27 17:41:18;;;;;;;21.23;12.48;;;;;;;;;;5045830;28;20040;-64
2021/12/27 17:43:44;;;;;;;18.13;11.35;;;;;;;;;;5045454;28;20075;-64
2021/12/27 17:46:10;;;;;;;14.25;11.63;;;;;;;;;;5044151;28;20028;-64
2021/12/27 17:48:36;;;;;;;14.07;9.93;;;;;;;;;;5042969;28;20021;-64
2021/12/27 17:51:03;;;;;;;15.82;9.48;;;;;;;;;;5043553;28;20037;-64
2021/12/27 17:53:29;;;;;;;16.33;11.00;;;;;;;;;;5044150;28;20025;-64
2021/12/27 17:55:55;;;;;;;15.27;10.90;;;;;;;;;;5045893;28;20033;-64
2021/12/27 17:58:21;;;;;;;17.05;11.50;;;;;;;;;;5044816;28;20132;-63
2021/12/27 18:00:47;;;;;;;13.65;10.55;;;;;;;;;;5044133;28;20025;-63
2021/12/27 18:03:13;;;;;;;14.98;11.02;;;;;;;;;;5044792;28;20332;-63
2021/12/27 18:05:39;;;;;;;12.30;9.15;;;;;;;;;;5045087;28;20083;-63
2021/12/27 18:08:06;;;;;;;11.93;9.23;;;;;;;;;;5044999;28;20033;-63
2021/12/27 18:10:32;;;;;;;14.25;9.30;;;;;;;;;;5033926;28;20567;-63
2021/12/27 18:12:58;;;;;;;15.40;10.30;;;;;;;;;;5032107;28;20022;-62
2021/12/27 18:15:24;;;;;;;21.02;12.68;;;;;;;;;;5032067;28;20384;-62
2021/12/27 18:17:50;;;;;;;20.75;13.65;;;;;;;;;;5029722;28;20048;-62
2021/12/27 18:20:19;;;;;;;16.40;11.77;;;;;;;;;;5032031;28;20036;-62
2021/12/27 18:22:45;;;;;;;24.40;14.18;;;;;;;;;;5031540;28;20026;-62
2021/12/27 18:25:11;;;;;;;23.92;12.98;;;;;;;;;;5031515;28;20492;-62
2021/12/27 18:27:37;;;;;;;18.77;11.75;;;;;;;;;;5031235;28;20025;-61
2021/12/27 18:30:07;;;;;;;16.05;11.25;;;;;;;;;;5038358;28;20033;-61
2021/12/27 18:32:33;;;;;;;20.20;11.95;;;;;;;;;;5033246;28;20536;-63
2021/12/27 18:34:59;;;;;;;21.02;12.52;;;;;;;;;;5027959;28;20068;-65
2021/12/27 18:37:26;;;;;;;22.10;12.73;;;;;;;;;;5032490;28;20017;-65
2021/12/27 18:39:52;;;;;;;19.33;12.68;;;;;;;;;;5032168;28;20025;-65
2021/12/27 18:42:18;;;;;;;20.95;11.73;;;;;;;;;;5031720;28;20052;-65
2021/12/27 18:44:45;;;;;;;15.48;10.77;;;;;;;;;;5030438;28;20100;-65
2021/12/27 18:47:11;;;;;;;17.98;12.45;;;;;;;;;;5030099;28;20060;-65
2021/12/27 18:49:37;;;;;;;15.75;11.00;;;;;;;;;;5031245;28;20041;-65
2021/12/27 18:52:03;;;;;;;17.25;13.15;;;;;;;;;;5030404;28;20026;-66
2021/12/27 18:54:29;;;;;;;14.45;11.05;;;;;;;;;;5031772;28;20093;-65
2021/12/27 18:56:55;;;;;;;15.40;10.60;;;;;;;;;;5031415;28;20476;-65
2021/12/27 18:59:22;;;;;;;13.65;9.55;;;;;;;;;;5031107;28;20049;-65
2021/12/27 19:01:48;;;;;;;15.52;10.90;;;;;;;;;;5031531;28;20477;-65
2021/12/27 19:04:14;;;;;;;14.15;9.68;;;;;;;;;;5031406;28;20018;-65
2021/12/27 19:06:40;;;;;;;20.50;11.88;;;;;;;;;;5031435;28;20427;-66
2021/12/27 19:09:06;;;;;;;18.85;12.35;;;;;;;;;;5031232;28;20029;-65
2021/12/27 19:11:32;;;;;;;22.85;13.52;;;;;;;;;;5031202;28;20030;-65
2021/12/27 19:13:58;;;;;;;15.55;10.85;;;;;;;;;;5031052;28;20072;-65
2021/12/27 19:16:24;;;;;;;19.45;10.23;;;;;;;;;;5030942;28;20028;-65
2021/12/27 19:18:51;;;;;;;16.90;11.27;;;;;;;;;;5029543;28;20068;-65
2021/12/27 19:21:18;;;;;;;19.23;11.55;;;;;;;;;;5028992;28;20018;-65
2021/12/27 19:23:45;;;;;;;15.55;10.52;;;;;;;;;;5029862;28;20032;-65
2021/12/27 19:26:11;;;;;;;16.20;10.93;;;;;;;;;;5029772;28;20523;-65
2021/12/27 19:28:37;;;;;;;15.63;9.85;;;;;;;;;;5031401;28;20030;-65
2021/12/27 19:31:03;;;;;;;16.10;9.80;;;;;;;;;;5031014;28;20030;-66
2021/12/27 19:33:29;;;;;;;18.73;10.45;;;;;;;;;;5029817;28;20021;-65
2021/12/27 19:35:55;;;;;;;18.35;9.60;;;;;;;;;;5030523;28;20033;-65
2021/12/27 19:38:21;;;;;;;15.75;10.73;;;;;;;;;;5030709;28;20132;-65
2021/12/27 19:40:48;;;;;;;15.60;10.50;;;;;;;;;;5030739;28;20096;-65
2021/12/27 19:43:14;;;;;;;17.75;11.90;;;;;;;;;;5030416;28;20021;-63
2021/12/27 19:45:40;;;;;;;18.55;13.43;;;;;;;;;;5029999;28;20025;-63
2021/12/27 19:48:06;;;;;;;19.27;14.18;;;;;;;;;;5029572;28;20559;-63
2021/12/27 19:50:33;;;;;;;50.97;39.30;;;;;;;;;;5029221;28;20035;-63
2021/12/27 19:52:59;;;;;;;41.05;27.48;;;;;;;;;;5029736;28;20463;-64
2021/12/27 19:55:25;;;;;;;66.97;52.58;;;;;;;;;;5028767;28;20021;-63
2021/12/27 19:57:52;;;;;;;30.25;23.27;;;;;;;;;;5029413;28;20050;-63
2021/12/27 20:00:18;;;;;;;17.83;12.88;;;;;;;;;;5041629;28;20425;-63
2021/12/27 20:02:44;;;;;;;26.98;21.50;;;;;;;;;;5037499;28;20382;-62
2021/12/27 20:05:10;;;;;;;15.65;12.35;;;;;;;;;;5030498;28;20415;-63
2021/12/27 20:07:36;;;;;;;17.83;10.68;;;;;;;;;;5028885;28;20026;-63
2021/12/27 20:10:03;;;;;;;13.13;9.85;;;;;;;;;;5028169;28;20067;-63
2021/12/27 20:12:29;;;;;;;21.65;12.40;;;;;;;;;;5030750;28;20533;-62
2021/12/27 20:14:55;;;;;;;17.92;12.32;;;;;;;;;;5038504;28;20079;-62
2021/12/27 20:17:22;;;;;;;18.60;12.90;;;;;;;;;;5032899;28;20100;-63
2021/12/27 20:19:48;;;;;;;17.55;10.15;;;;;;;;;;5028748;28;20037;-63
2021/12/27 20:22:14;;;;;;;14.25;9.02;;;;;;;;;;5028074;28;20303;-62
2021/12/27 20:24:41;;;;;;;15.95;8.43;;;;;;;;;;5028723;28;20492;-63
2021/12/27 20:27:07;;;;;;;13.57;9.00;;;;;;;;;;5027366;28;20170;-63
2021/12/27 20:29:35;;;;;;;16.98;11.75;;;;;;;;;;5028324;28;20058;-62
2021/12/27 20:32:02;;;;;;;26.83;16.83;;;;;;;;;;5027899;28;20384;-64
2021/12/27 20:34:28;;;;;;;26.02;17.58;;;;;;;;;;5008840;28;20476;-63
2021/12/27 20:36:54;;;;;;;19.67;13.27;;;;;;;;;;5023980;28;20025;-63
2021/12/27 20:39:20;;;;;;;15.82;10.25;;;;;;;;;;5027814;28;20037;-62
2021/12/27 20:41:46;;;;;;;15.07;9.63;;;;;;;;;;5027879;28;20021;-62
2021/12/27 20:44:12;;;;;;;13.55;8.93;;;;;;;;;;5029571;28;20021;-63
2021/12/27 20:46:38;;;;;;;17.17;10.48;;;;;;;;;;5028213;28;20021;-63
2021/12/27 20:49:05;;;;;;;16.85;10.07;;;;;;;;;;5029629;28;20067;-64
2021/12/27 20:51:31;;;;;;;12.88;8.80;;;;;;;;;;5027169;28;20057;-63
2021/12/27 20:53:57;;;;;;;15.43;8.70;;;;;;;;;;5027557;28;20038;-63
2021/12/27 20:56:23;;;;;;;11.77;7.93;;;;;;;;;;5028357;28;20052;-63
2021/12/27 20:58:50;;;;;;;10.05;6.95;;;;;;;;;;5027742;28;20526;-63
2021/12/27 21:01:16;;;;;;;19.35;8.10;;;;;;;;;;5027442;28;20116;-63
2021/12/27 21:03:42;;;;;;;13.45;7.30;;;;;;;;;;5033541;28;20029;-63
2021/12/27 21:06:10;;;;;;;9.63;7.30;;;;;;;;;;5028666;28;20033;-62
2021/12/27 21:08:36;;;;;;;10.85;7.55;;;;;;;;;;5027634;28;20029;-64
2021/12/27 21:11:02;;;;;;;13.27;7.93;;;;;;;;;;5028580;28;20037;-63
2021/12/27 21:13:29;;;;;;;11.15;8.23;;;;;;;;;;5028412;28;20028;-63
2021/12/27 21:15:55;;;;;;;10.75;7.25;;;;;;;;;;5028672;28;20796;-62
2021/12/27 21:18:21;;;;;;;11.40;7.32;;;;;;;;;;5027855;28;20161;-63
2021/12/27 21:20:47;;;;;;;13.15;8.00;;;;;;;;;;5029039;28;20021;-63
2021/12/27 21:23:13;;;;;;;17.27;8.20;;;;;;;;;;5019154;28;20029;-63
2021/12/27 21:25:39;;;;;;;14.02;7.07;;;;;;;;;;5003461;28;20013;-63
2021/12/27 21:28:05;;;;;;;11.45;7.20;;;;;;;;;;5006763;28;20033;-63
2021/12/27 21:30:31;;;;;;;16.23;8.30;;;;;;;;;;5008485;28;20048;-64
2021/12/27 21:32:57;;;;;;;17.92;8.15;;;;;;;;;;5007832;28;20040;-63
2021/12/27 21:35:24;;;;;;;15.50;8.98;;;;;;;;;;5007903;28;20049;-63
2021/12/27 21:37:50;;;;;;;12.98;7.93;;;;;;;;;;5007548;28;20288;-63
2021/12/27 21:40:17;;;;;;;10.38;7.55;;;;;;;;;;5006378;28;20460;-63
2021/12/27 21:42:48;;;;;;;12.63;7.28;;;;;;;;;;5006873;28;20026;-62
2021/12/27 21:45:14;;;;;;;13.85;7.40;;;;;;;;;;5009531;28;20045;-64
2021/12/27 21:47:43;;;;;;;12.75;7.45;;;;;;;;;;5008500;28;20029;-62
2021/12/27 21:50:14;;;;;;;9.80;7.10;;;;;;;;;;5009478;28;20025;-63
2021/12/27 21:52:43;;;;;;;8.93;6.82;;;;;;;;;;5007690;28;20083;-63
2021/12/27 21:55:13;;;;;;;31.88;22.48;;;;;;;;;;5007187;28;20075;-63
2021/12/27 21:57:39;;;;;;;20.52;14.73;;;;;;;;;;5010680;28;20477;-62
2021/12/27 22:00:07;;;;;;;16.15;11.15;;;;;;;;;;5008362;28;20030;-63
2021/12/27 22:02:33;;;;;;;21.98;14.65;;;;;;;;;;5024526;28;20022;-62
2021/12/27 22:04:59;;;;;;;18.02;12.40;;;;;;;;;;5009418;28;20072;-62
2021/12/27 22:07:25;;;;;;;19.13;11.43;;;;;;;;;;5009064;28;20033;-63
2021/12/27 22:09:51;;;;;;;23.05;11.45;;;;;;;;;;5005332;28;20029;-63
2021/12/27 22:12:17;;;;;;;14.27;8.57;;;;;;;;;;5009913;28;20026;-63
2021/12/27 22:14:44;;;;;;;16.77;11.70;;;;;;;;;;5010600;28;20059;-63
2021/12/27 22:17:11;;;;;;;15.98;12.73;;;;;;;;;;5009380;28;20075;-63
2021/12/27 22:19:37;;;;;;;20.35;10.75;;;;;;;;;;5009080;28;20056;-64
2021/12/27 22:22:03;;;;;;;19.48;10.70;;;;;;;;;;5009432;28;20088;-63
2021/12/27 22:24:29;;;;;;;17.50;11.30;;;;;;;;;;5008655;28;20045;-63
2021/12/27 22:26:55;;;;;;;17.35;10.02;;;;;;;;;;5008771;28;20040;-63
2021/12/27 22:29:21;;;;;;;17.17;10.80;;;;;;;;;;5009499;28;20253;-63
2021/12/27 22:31:48;;;;;;;12.85;9.77;;;;;;;;;;5009839;28;20647;-63
2021/12/27 22:34:14;;;;;;;19.65;11.75;;;;;;;;;;5023466;28;20113;-64
2021/12/27 22:36:43;;;;;;;18.00;9.98;;;;;;;;;;5030471;28;20026;-62
2021/12/27 22:39:09;;;;;;;13.70;10.55;;;;;;;;;;5030493;28;20140;-63
2021/12/27 22:41:36;;;;;;;16.60;10.93;;;;;;;;;;5031087;28;20042;-61
2021/12/27 22:44:02;;;;;;;17.73;10.90;;;;;;;;;;5030142;28;20029;-64
2021/12/27 22:46:28;;;;;;;16.83;11.25;;;;;;;;;;5029891;28;20063;-65
2021/12/27 22:48:54;;;;;;;14.48;10.13;;;;;;;;;;5029282;28;20058;-64
2021/12/27 22:51:20;;;;;;;18.10;10.60;;;;;;;;;;5030483;28;20555;-64
2021/12/27 22:53:46;;;;;;;14.98;10.07;;;;;;;;;;5031114;28;20392;-64
2021/12/27 22:56:12;;;;;;;15.98;10.18;;;;;;;;;;5029901;28;20079;-64
2021/12/27 22:58:38;;;;;;;17.75;11.90;;;;;;;;;;5030601;28;20049;-64
2021/12/27 23:01:04;;;;;;;28.90;13.95;;;;;;;;;;5030709;28;20030;-64
2021/12/27 23:03:30;;;;;;;19.58;12.65;;;;;;;;;;5030760;28;20025;-64
2021/12/27 23:05:57;;;;;;;20.58;12.43;;;;;;;;;;5030453;28;20053;-64
2021/12/27 23:08:23;;;;;;;23.05;10.52;;;;;;;;;;5030350;28;20025;-64
2021/12/27 23:10:49;;;;;;;20.60;11.05;;;;;;;;;;5030923;28;20185;-64
2021/12/27 23:13:16;;;;;;;19.90;10.45;;;;;;;;;;5030187;28;20229;-64
2021/12/27 23:15:42;;;;;;;16.27;11.10;;;;;;;;;;5041950;28;20502;-64
2021/12/27 23:18:08;;;;;;;18.58;10.10;;;;;;;;;;5030286;28;20033;-64
2021/12/27 23:20:34;;;;;;;18.98;11.63;;;;;;;;;;5030531;28;20021;-65
2021/12/27 23:23:00;;;;;;;18.00;12.02;;;;;;;;;;5029901;28;20022;-63
2021/12/27 23:25:26;;;;;;;20.08;12.10;;;;;;;;;;5045091;28;20025;-64
2021/12/27 23:27:53;;;;;;;22.45;13.18;;;;;;;;;;5029445;28;20034;-64
